sensor_id;sensor_type;location;lat;lon;timestamp;P1;durP1;ratioP1;P2;durP2;ratioP2
26512;SDS011;14186;53.822;10.152;2023-11-19T00:01:18;8.93;;;4.43;;
26512;SDS011;14186;53.822;10.152;2023-11-19T00:06:18;8.98;;;4.47;;
26512;SDS011;14186;53.822;10.152;2023-11-19T00:11:18;10.43;;;5.03;;
26512;SDS011;14186;53.822;10.152;2023-11-19T00:16:20;7.90;;;3.78;;
26512;SDS011;14186;53.822;10.152;2023-11-19T00:21:20;8.40;;;4.22;;
26512;SDS011;14186;53.822;10.152;2023-11-19T00:26:20;8.23;;;3.97;;
26512;SDS011;14186;53.822;10.152;2023-11-19T00:31:22;8.18;;;4.05;;
26512;SDS011;14186;53.822;10.152;2023-11-19T00:36:22;6.65;;;3.53;;
26512;SDS011;14186;53.822;10.152;2023-11-19T00:41:22;7.78;;;4.20;;
26512;SDS011;14186;53.822;10.152;2023-11-19T00:46:24;8.23;;;3.65;;
26512;SDS011;14186;53.822;10.152;2023-11-19T00:51:24;7.35;;;3.53;;
26512;SDS011;14186;53.822;10.152;2023-11-19T00:56:24;5.53;;;2.83;;
26512;SDS011;14186;53.822;10.152;2023-11-19T01:01:25;5.40;;;2.67;;
26512;SDS011;14186;53.822;10.152;2023-11-19T01:06:26;5.50;;;2.58;;
26512;SDS011;14186;53.822;10.152;2023-11-19T01:11:26;5.03;;;2.10;;
26512;SDS011;14186;53.822;10.152;2023-11-19T01:16:28;4.75;;;2.08;;
26512;SDS011;14186;53.822;10.152;2023-11-19T01:21:28;3.92;;;1.52;;
26512;SDS011;14186;53.822;10.152;2023-11-19T01:26:28;2.72;;;1.60;;
26512;SDS011;14186;53.822;10.152;2023-11-19T01:31:30;4.40;;;1.48;;
26512;SDS011;14186;53.822;10.152;2023-11-19T01:36:30;4.63;;;1.77;;
26512;SDS011;14186;53.822;10.152;2023-11-19T01:41:33;3.15;;;1.45;;
26512;SDS011;14186;53.822;10.152;2023-11-19T01:46:35;2.97;;;1.17;;
26512;SDS011;14186;53.822;10.152;2023-11-19T01:51:35;3.67;;;1.23;;
26512;SDS011;14186;53.822;10.152;2023-11-19T01:56:36;2.78;;;1.10;;
26512;SDS011;14186;53.822;10.152;2023-11-19T02:01:38;1.75;;;0.80;;
26512;SDS011;14186;53.822;10.152;2023-11-19T02:06:39;2.50;;;1.15;;
26512;SDS011;14186;53.822;10.152;2023-11-19T02:11:40;2.35;;;0.90;;
26512;SDS011;14186;53.822;10.152;2023-11-19T02:16:41;1.27;;;0.60;;
26512;SDS011;14186;53.822;10.152;2023-11-19T02:21:42;1.17;;;0.45;;
26512;SDS011;14186;53.822;10.152;2023-11-19T02:26:44;2.55;;;0.77;;
26512;SDS011;14186;53.822;10.152;2023-11-19T02:31:48;1.10;;;0.60;;
26512;SDS011;14186;53.822;10.152;2023-11-19T02:36:48;1.27;;;0.60;;
26512;SDS011;14186;53.822;10.152;2023-11-19T02:41:48;0.80;;;0.40;;
26512;SDS011;14186;53.822;10.152;2023-11-19T02:46:50;1.10;;;0.40;;
26512;SDS011;14186;53.822;10.152;2023-11-19T02:51:50;1.30;;;0.40;;
26512;SDS011;14186;53.822;10.152;2023-11-19T02:56:50;0.60;;;0.40;;
26512;SDS011;14186;53.822;10.152;2023-11-19T03:01:52;0.93;;;0.35;;
26512;SDS011;14186;53.822;10.152;2023-11-19T03:06:52;0.82;;;0.40;;
26512;SDS011;14186;53.822;10.152;2023-11-19T03:11:52;0.57;;;0.20;;
26512;SDS011;14186;53.822;10.152;2023-11-19T03:16:54;0.80;;;0.20;;
26512;SDS011;14186;53.822;10.152;2023-11-19T03:21:54;0.30;;;0.10;;
26512;SDS011;14186;53.822;10.152;2023-11-19T03:26:54;0.40;;;0.20;;
26512;SDS011;14186;53.822;10.152;2023-11-19T03:31:56;1.42;;;0.40;;
26512;SDS011;14186;53.822;10.152;2023-11-19T03:36:56;0.40;;;0.25;;
26512;SDS011;14186;53.822;10.152;2023-11-19T03:41:56;0.95;;;0.15;;
26512;SDS011;14186;53.822;10.152;2023-11-19T03:46:58;0.63;;;0.30;;
26512;SDS011;14186;53.822;10.152;2023-11-19T03:51:58;1.15;;;0.40;;
26512;SDS011;14186;53.822;10.152;2023-11-19T03:56:58;0.73;;;0.40;;
26512;SDS011;14186;53.822;10.152;2023-11-19T04:02:00;0.82;;;0.32;;
26512;SDS011;14186;53.822;10.152;2023-11-19T04:07:00;1.00;;;0.50;;
26512;SDS011;14186;53.822;10.152;2023-11-19T04:12:00;1.10;;;0.50;;
26512;SDS011;14186;53.822;10.152;2023-11-19T04:17:02;1.15;;;0.80;;
26512;SDS011;14186;53.822;10.152;2023-11-19T04:22:02;1.52;;;0.65;;
26512;SDS011;14186;53.822;10.152;2023-11-19T04:27:03;4.13;;;0.93;;
26512;SDS011;14186;53.822;10.152;2023-11-19T04:32:05;1.23;;;0.75;;
26512;SDS011;14186;53.822;10.152;2023-11-19T04:37:05;1.85;;;1.02;;
26512;SDS011;14186;53.822;10.152;2023-11-19T04:42:05;3.60;;;1.35;;
26512;SDS011;14186;53.822;10.152;2023-11-19T04:47:07;2.75;;;1.35;;
26512;SDS011;14186;53.822;10.152;2023-11-19T04:52:07;4.10;;;1.88;;
26512;SDS011;14186;53.822;10.152;2023-11-19T04:57:07;4.18;;;2.08;;
26512;SDS011;14186;53.822;10.152;2023-11-19T05:02:09;3.58;;;1.60;;
26512;SDS011;14186;53.822;10.152;2023-11-19T05:07:09;4.97;;;2.10;;
26512;SDS011;14186;53.822;10.152;2023-11-19T05:12:09;5.70;;;2.55;;
26512;SDS011;14186;53.822;10.152;2023-11-19T05:17:11;4.93;;;2.08;;
26512;SDS011;14186;53.822;10.152;2023-11-19T05:22:11;5.50;;;2.58;;
26512;SDS011;14186;53.822;10.152;2023-11-19T05:27:11;6.55;;;3.58;;
26512;SDS011;14186;53.822;10.152;2023-11-19T05:32:13;12.75;;;5.15;;
26512;SDS011;14186;53.822;10.152;2023-11-19T05:37:13;11.65;;;6.13;;
26512;SDS011;14186;53.822;10.152;2023-11-19T05:42:13;30.00;;;6.82;;
26512;SDS011;14186;53.822;10.152;2023-11-19T05:47:15;12.38;;;5.65;;
26512;SDS011;14186;53.822;10.152;2023-11-19T05:52:15;13.63;;;7.28;;
26512;SDS011;14186;53.822;10.152;2023-11-19T05:57:15;12.95;;;6.53;;
26512;SDS011;14186;53.822;10.152;2023-11-19T06:02:17;14.77;;;6.53;;
26512;SDS011;14186;53.822;10.152;2023-11-19T06:07:17;19.23;;;8.02;;
26512;SDS011;14186;53.822;10.152;2023-11-19T06:12:17;18.05;;;8.65;;
26512;SDS011;14186;53.822;10.152;2023-11-19T06:17:19;14.55;;;7.95;;
26512;SDS011;14186;53.822;10.152;2023-11-19T06:22:19;18.67;;;7.82;;
26512;SDS011;14186;53.822;10.152;2023-11-19T06:27:19;17.83;;;8.07;;
26512;SDS011;14186;53.822;10.152;2023-11-19T06:32:21;16.50;;;7.82;;
26512;SDS011;14186;53.822;10.152;2023-11-19T06:37:21;18.75;;;8.35;;
26512;SDS011;14186;53.822;10.152;2023-11-19T06:42:21;15.63;;;8.23;;
26512;SDS011;14186;53.822;10.152;2023-11-19T06:47:24;20.77;;;8.00;;
26512;SDS011;14186;53.822;10.152;2023-11-19T06:52:24;16.20;;;7.80;;
26512;SDS011;14186;53.822;10.152;2023-11-19T06:57:25;15.50;;;7.20;;
26512;SDS011;14186;53.822;10.152;2023-11-19T07:02:26;14.40;;;7.40;;
26512;SDS011;14186;53.822;10.152;2023-11-19T07:07:26;14.20;;;7.40;;
26512;SDS011;14186;53.822;10.152;2023-11-19T07:12:27;13.88;;;6.65;;
26512;SDS011;14186;53.822;10.152;2023-11-19T07:17:29;13.73;;;6.60;;
26512;SDS011;14186;53.822;10.152;2023-11-19T07:22:29;14.00;;;5.13;;
26512;SDS011;14186;53.822;10.152;2023-11-19T07:27:29;13.90;;;4.82;;
26512;SDS011;14186;53.822;10.152;2023-11-19T07:32:31;20.45;;;4.97;;
26512;SDS011;14186;53.822;10.152;2023-11-19T07:37:31;16.52;;;4.35;;
26512;SDS011;14186;53.822;10.152;2023-11-19T07:42:31;18.65;;;4.20;;
26512;SDS011;14186;53.822;10.152;2023-11-19T07:47:33;18.05;;;2.78;;
26512;SDS011;14186;53.822;10.152;2023-11-19T07:52:33;14.95;;;2.85;;
26512;SDS011;14186;53.822;10.152;2023-11-19T07:57:33;14.90;;;3.22;;
26512;SDS011;14186;53.822;10.152;2023-11-19T08:02:35;12.82;;;3.13;;
26512;SDS011;14186;53.822;10.152;2023-11-19T08:07:35;15.02;;;3.63;;
26512;SDS011;14186;53.822;10.152;2023-11-19T08:12:35;19.63;;;3.03;;
26512;SDS011;14186;53.822;10.152;2023-11-19T08:17:37;9.82;;;2.10;;
26512;SDS011;14186;53.822;10.152;2023-11-19T08:22:38;16.65;;;2.33;;
26512;SDS011;14186;53.822;10.152;2023-11-19T08:27:38;12.88;;;1.90;;
26512;SDS011;14186;53.822;10.152;2023-11-19T08:32:40;13.70;;;2.33;;
26512;SDS011;14186;53.822;10.152;2023-11-19T08:37:40;23.08;;;2.72;;
26512;SDS011;14186;53.822;10.152;2023-11-19T08:42:40;24.30;;;3.63;;
26512;SDS011;14186;53.822;10.152;2023-11-19T08:47:42;9.68;;;2.10;;
26512;SDS011;14186;53.822;10.152;2023-11-19T08:52:42;16.20;;;2.67;;
26512;SDS011;14186;53.822;10.152;2023-11-19T08:57:42;19.88;;;2.75;;
26512;SDS011;14186;53.822;10.152;2023-11-19T09:02:44;14.10;;;2.88;;
26512;SDS011;14186;53.822;10.152;2023-11-19T09:07:44;12.05;;;2.65;;
26512;SDS011;14186;53.822;10.152;2023-11-19T09:12:44;19.08;;;2.38;;
26512;SDS011;14186;53.822;10.152;2023-11-19T09:17:46;24.10;;;3.17;;
26512;SDS011;14186;53.822;10.152;2023-11-19T09:22:46;16.48;;;2.53;;
26512;SDS011;14186;53.822;10.152;2023-11-19T09:27:46;10.90;;;2.72;;
26512;SDS011;14186;53.822;10.152;2023-11-19T09:32:48;16.45;;;3.08;;
26512;SDS011;14186;53.822;10.152;2023-11-19T09:37:48;20.35;;;3.60;;
26512;SDS011;14186;53.822;10.152;2023-11-19T09:42:48;18.50;;;2.45;;
26512;SDS011;14186;53.822;10.152;2023-11-19T09:47:50;17.05;;;2.50;;
26512;SDS011;14186;53.822;10.152;2023-11-19T09:52:51;19.05;;;3.10;;
26512;SDS011;14186;53.822;10.152;2023-11-19T09:57:51;20.17;;;3.13;;
26512;SDS011;14186;53.822;10.152;2023-11-19T10:02:54;21.02;;;2.85;;
26512;SDS011;14186;53.822;10.152;2023-11-19T10:07:54;22.58;;;3.25;;
26512;SDS011;14186;53.822;10.152;2023-11-19T10:12:54;17.17;;;2.92;;
26512;SDS011;14186;53.822;10.152;2023-11-19T10:17:56;13.60;;;2.20;;
26512;SDS011;14186;53.822;10.152;2023-11-19T10:22:56;12.88;;;1.98;;
26512;SDS011;14186;53.822;10.152;2023-11-19T10:27:57;18.73;;;2.78;;
26512;SDS011;14186;53.822;10.152;2023-11-19T10:33:05;19.00;;;3.05;;
26512;SDS011;14186;53.822;10.152;2023-11-19T10:38:13;18.50;;;2.75;;
26512;SDS011;14186;53.822;10.152;2023-11-19T10:43:13;18.98;;;2.38;;
26512;SDS011;14186;53.822;10.152;2023-11-19T10:48:15;13.18;;;2.00;;
26512;SDS011;14186;53.822;10.152;2023-11-19T10:53:15;22.75;;;2.90;;
26512;SDS011;14186;53.822;10.152;2023-11-19T10:58:17;20.73;;;2.30;;
26512;SDS011;14186;53.822;10.152;2023-11-19T11:03:20;16.58;;;2.65;;
26512;SDS011;14186;53.822;10.152;2023-11-19T11:08:20;14.32;;;2.00;;
26512;SDS011;14186;53.822;10.152;2023-11-19T11:13:22;13.00;;;2.57;;
26512;SDS011;14186;53.822;10.152;2023-11-19T11:18:23;12.30;;;2.10;;
26512;SDS011;14186;53.822;10.152;2023-11-19T11:23:29;12.13;;;2.47;;
26512;SDS011;14186;53.822;10.152;2023-11-19T11:28:35;14.40;;;1.85;;
26512;SDS011;14186;53.822;10.152;2023-11-19T11:33:41;14.93;;;2.28;;
26512;SDS011;14186;53.822;10.152;2023-11-19T11:38:47;17.73;;;3.30;;
26512;SDS011;14186;53.822;10.152;2023-11-19T11:43:48;18.83;;;2.83;;
26512;SDS011;14186;53.822;10.152;2023-11-19T11:48:49;16.48;;;3.38;;
26512;SDS011;14186;53.822;10.152;2023-11-19T11:53:51;14.65;;;1.95;;
26512;SDS011;14186;53.822;10.152;2023-11-19T11:58:52;23.45;;;2.50;;
26512;SDS011;14186;53.822;10.152;2023-11-19T12:03:55;21.17;;;2.50;;
26512;SDS011;14186;53.822;10.152;2023-11-19T12:08:59;20.23;;;2.95;;
26512;SDS011;14186;53.822;10.152;2023-11-19T12:13:59;16.88;;;2.90;;
26512;SDS011;14186;53.822;10.152;2023-11-19T12:19:03;10.45;;;2.05;;
26512;SDS011;14186;53.822;10.152;2023-11-19T12:24:04;11.85;;;2.55;;
26512;SDS011;14186;53.822;10.152;2023-11-19T12:29:04;18.42;;;3.22;;
26512;SDS011;14186;53.822;10.152;2023-11-19T12:34:07;18.73;;;2.23;;
26512;SDS011;14186;53.822;10.152;2023-11-19T12:39:07;13.32;;;2.50;;
26512;SDS011;14186;53.822;10.152;2023-11-19T12:44:10;14.68;;;2.65;;
26512;SDS011;14186;53.822;10.152;2023-11-19T12:49:12;13.48;;;2.58;;
26512;SDS011;14186;53.822;10.152;2023-11-19T12:54:12;20.55;;;2.45;;
26512;SDS011;14186;53.822;10.152;2023-11-19T12:59:12;13.45;;;2.17;;
26512;SDS011;14186;53.822;10.152;2023-11-19T13:04:17;20.00;;;2.85;;
26512;SDS011;14186;53.822;10.152;2023-11-19T13:09:27;14.93;;;2.67;;
26512;SDS011;14186;53.822;10.152;2023-11-19T13:14:35;14.90;;;3.15;;
26512;SDS011;14186;53.822;10.152;2023-11-19T13:19:37;20.38;;;2.58;;
26512;SDS011;14186;53.822;10.152;2023-11-19T13:24:37;16.70;;;3.10;;
26512;SDS011;14186;53.822;10.152;2023-11-19T13:29:37;14.18;;;2.10;;
26512;SDS011;14186;53.822;10.152;2023-11-19T13:34:39;20.88;;;3.40;;
26512;SDS011;14186;53.822;10.152;2023-11-19T13:39:41;15.23;;;2.25;;
26512;SDS011;14186;53.822;10.152;2023-11-19T13:44:41;21.70;;;2.97;;
26512;SDS011;14186;53.822;10.152;2023-11-19T13:49:43;20.77;;;3.13;;
26512;SDS011;14186;53.822;10.152;2023-11-19T13:54:44;14.90;;;2.50;;
26512;SDS011;14186;53.822;10.152;2023-11-19T13:59:44;20.67;;;3.30;;
26512;SDS011;14186;53.822;10.152;2023-11-19T14:04:46;14.27;;;2.47;;
26512;SDS011;14186;53.822;10.152;2023-11-19T14:09:46;17.77;;;2.85;;
26512;SDS011;14186;53.822;10.152;2023-11-19T14:14:46;17.65;;;3.25;;
26512;SDS011;14186;53.822;10.152;2023-11-19T14:19:48;18.65;;;2.83;;
26512;SDS011;14186;53.822;10.152;2023-11-19T14:24:48;15.93;;;2.95;;
26512;SDS011;14186;53.822;10.152;2023-11-19T14:29:48;14.60;;;3.08;;
26512;SDS011;14186;53.822;10.152;2023-11-19T14:34:50;17.85;;;2.38;;
26512;SDS011;14186;53.822;10.152;2023-11-19T14:39:50;15.57;;;2.63;;
26512;SDS011;14186;53.822;10.152;2023-11-19T14:44:50;20.60;;;3.17;;
26512;SDS011;14186;53.822;10.152;2023-11-19T14:49:52;13.02;;;2.63;;
26512;SDS011;14186;53.822;10.152;2023-11-19T14:54:52;12.68;;;2.75;;
26512;SDS011;14186;53.822;10.152;2023-11-19T14:59:52;23.00;;;2.30;;
26512;SDS011;14186;53.822;10.152;2023-11-19T15:04:54;11.85;;;1.88;;
26512;SDS011;14186;53.822;10.152;2023-11-19T15:09:54;8.57;;;1.98;;
26512;SDS011;14186;53.822;10.152;2023-11-19T15:14:54;15.10;;;2.33;;
26512;SDS011;14186;53.822;10.152;2023-11-19T15:19:56;17.00;;;2.20;;
26512;SDS011;14186;53.822;10.152;2023-11-19T15:24:56;10.88;;;1.40;;
26512;SDS011;14186;53.822;10.152;2023-11-19T15:29:56;15.30;;;1.90;;
26512;SDS011;14186;53.822;10.152;2023-11-19T15:34:57;6.43;;;1.23;;
26512;SDS011;14186;53.822;10.152;2023-11-19T15:39:58;7.47;;;1.20;;
26512;SDS011;14186;53.822;10.152;2023-11-19T15:44:58;5.40;;;0.82;;
26512;SDS011;14186;53.822;10.152;2023-11-19T15:50:00;5.90;;;1.10;;
26512;SDS011;14186;53.822;10.152;2023-11-19T15:55:00;8.25;;;1.27;;
26512;SDS011;14186;53.822;10.152;2023-11-19T16:00:00;7.80;;;1.38;;
26512;SDS011;14186;53.822;10.152;2023-11-19T16:05:02;5.43;;;1.15;;
26512;SDS011;14186;53.822;10.152;2023-11-19T16:10:03;7.25;;;1.10;;
26512;SDS011;14186;53.822;10.152;2023-11-19T16:15:03;5.68;;;1.15;;
26512;SDS011;14186;53.822;10.152;2023-11-19T16:20:05;8.13;;;1.50;;
26512;SDS011;14186;53.822;10.152;2023-11-19T16:25:06;6.35;;;1.58;;
26512;SDS011;14186;53.822;10.152;2023-11-19T16:30:06;4.90;;;1.02;;
26512;SDS011;14186;53.822;10.152;2023-11-19T16:35:08;6.35;;;1.52;;
26512;SDS011;14186;53.822;10.152;2023-11-19T16:40:09;14.57;;;1.50;;
26512;SDS011;14186;53.822;10.152;2023-11-19T16:45:09;9.65;;;1.70;;
26512;SDS011;14186;53.822;10.152;2023-11-19T16:50:11;9.80;;;1.42;;
26512;SDS011;14186;53.822;10.152;2023-11-19T16:55:11;12.05;;;2.30;;
26512;SDS011;14186;53.822;10.152;2023-11-19T17:00:12;7.53;;;1.55;;
26512;SDS011;14186;53.822;10.152;2023-11-19T17:05:13;11.50;;;1.83;;
26512;SDS011;14186;53.822;10.152;2023-11-19T17:10:14;10.73;;;1.98;;
26512;SDS011;14186;53.822;10.152;2023-11-19T17:15:14;14.90;;;2.63;;
26512;SDS011;14186;53.822;10.152;2023-11-19T17:20:16;10.50;;;1.75;;
26512;SDS011;14186;53.822;10.152;2023-11-19T17:25:16;6.55;;;1.75;;
26512;SDS011;14186;53.822;10.152;2023-11-19T17:30:16;12.80;;;2.60;;
26512;SDS011;14186;53.822;10.152;2023-11-19T17:35:17;10.88;;;2.75;;
26512;SDS011;14186;53.822;10.152;2023-11-19T17:40:18;8.50;;;2.03;;
26512;SDS011;14186;53.822;10.152;2023-11-19T17:45:18;10.68;;;1.80;;
26512;SDS011;14186;53.822;10.152;2023-11-19T17:50:19;9.48;;;1.77;;
26512;SDS011;14186;53.822;10.152;2023-11-19T17:55:20;12.25;;;1.92;;
26512;SDS011;14186;53.822;10.152;2023-11-19T18:00:20;14.05;;;1.88;;
26512;SDS011;14186;53.822;10.152;2023-11-19T18:05:22;12.25;;;1.98;;
26512;SDS011;14186;53.822;10.152;2023-11-19T18:10:22;8.77;;;1.60;;
26512;SDS011;14186;53.822;10.152;2023-11-19T18:15:22;12.00;;;2.17;;
26512;SDS011;14186;53.822;10.152;2023-11-19T18:20:24;13.55;;;1.80;;
26512;SDS011;14186;53.822;10.152;2023-11-19T18:25:24;11.35;;;1.50;;
26512;SDS011;14186;53.822;10.152;2023-11-19T18:30:24;11.85;;;1.67;;
26512;SDS011;14186;53.822;10.152;2023-11-19T18:35:26;7.28;;;1.80;;
26512;SDS011;14186;53.822;10.152;2023-11-19T18:40:26;9.45;;;1.20;;
26512;SDS011;14186;53.822;10.152;2023-11-19T18:45:26;10.23;;;1.67;;
26512;SDS011;14186;53.822;10.152;2023-11-19T18:50:28;9.82;;;1.40;;
26512;SDS011;14186;53.822;10.152;2023-11-19T18:55:28;9.57;;;1.77;;
26512;SDS011;14186;53.822;10.152;2023-11-19T19:00:28;6.68;;;0.82;;
26512;SDS011;14186;53.822;10.152;2023-11-19T19:05:29;5.88;;;1.60;;
26512;SDS011;14186;53.822;10.152;2023-11-19T19:10:30;4.60;;;1.27;;
26512;SDS011;14186;53.822;10.152;2023-11-19T19:15:30;8.93;;;1.33;;
26512;SDS011;14186;53.822;10.152;2023-11-19T19:20:31;3.72;;;1.17;;
26512;SDS011;14186;53.822;10.152;2023-11-19T19:25:32;8.55;;;1.20;;
26512;SDS011;14186;53.822;10.152;2023-11-19T19:30:32;12.57;;;1.80;;
26512;SDS011;14186;53.822;10.152;2023-11-19T19:35:33;11.30;;;1.35;;
26512;SDS011;14186;53.822;10.152;2023-11-19T19:40:34;9.02;;;1.50;;
26512;SDS011;14186;53.822;10.152;2023-11-19T19:45:34;11.90;;;2.80;;
26512;SDS011;14186;53.822;10.152;2023-11-19T19:50:35;6.25;;;2.00;;
26512;SDS011;14186;53.822;10.152;2023-11-19T19:55:36;6.00;;;1.63;;
26512;SDS011;14186;53.822;10.152;2023-11-19T20:00:36;9.02;;;2.47;;
26512;SDS011;14186;53.822;10.152;2023-11-19T20:05:37;7.10;;;1.73;;
26512;SDS011;14186;53.822;10.152;2023-11-19T20:10:38;9.00;;;1.73;;
26512;SDS011;14186;53.822;10.152;2023-11-19T20:15:38;9.73;;;2.25;;
26512;SDS011;14186;53.822;10.152;2023-11-19T20:20:39;11.68;;;1.92;;
26512;SDS011;14186;53.822;10.152;2023-11-19T20:25:40;10.57;;;2.65;;
26512;SDS011;14186;53.822;10.152;2023-11-19T20:30:40;12.43;;;2.63;;
26512;SDS011;14186;53.822;10.152;2023-11-19T20:35:41;10.30;;;2.20;;
26512;SDS011;14186;53.822;10.152;2023-11-19T20:40:43;9.95;;;2.20;;
26512;SDS011;14186;53.822;10.152;2023-11-19T20:45:43;9.95;;;2.53;;
26512;SDS011;14186;53.822;10.152;2023-11-19T20:50:44;15.13;;;3.20;;
26512;SDS011;14186;53.822;10.152;2023-11-19T20:55:44;16.00;;;5.60;;
26512;SDS011;14186;53.822;10.152;2023-11-19T21:00:45;11.02;;;2.97;;
26512;SDS011;14186;53.822;10.152;2023-11-19T21:05:46;12.82;;;2.45;;
26512;SDS011;14186;53.822;10.152;2023-11-19T21:10:46;11.45;;;2.40;;
26512;SDS011;14186;53.822;10.152;2023-11-19T21:15:47;10.23;;;2.67;;
26512;SDS011;14186;53.822;10.152;2023-11-19T21:20:48;11.35;;;2.22;;
26512;SDS011;14186;53.822;10.152;2023-11-19T21:25:48;11.75;;;2.50;;
26512;SDS011;14186;53.822;10.152;2023-11-19T21:30:49;8.00;;;1.98;;
26512;SDS011;14186;53.822;10.152;2023-11-19T21:35:50;10.40;;;2.42;;
26512;SDS011;14186;53.822;10.152;2023-11-19T21:40:50;11.27;;;2.63;;
26512;SDS011;14186;53.822;10.152;2023-11-19T21:45:51;7.78;;;2.20;;
26512;SDS011;14186;53.822;10.152;2023-11-19T21:50:52;9.80;;;2.13;;
26512;SDS011;14186;53.822;10.152;2023-11-19T21:55:52;14.50;;;2.05;;
26512;SDS011;14186;53.822;10.152;2023-11-19T22:00:53;9.73;;;2.55;;
26512;SDS011;14186;53.822;10.152;2023-11-19T22:05:54;8.70;;;2.33;;
26512;SDS011;14186;53.822;10.152;2023-11-19T22:10:54;11.00;;;1.90;;
26512;SDS011;14186;53.822;10.152;2023-11-19T22:15:55;7.60;;;2.10;;
26512;SDS011;14186;53.822;10.152;2023-11-19T22:20:56;15.30;;;3.20;;
26512;SDS011;14186;53.822;10.152;2023-11-19T22:25:56;8.02;;;1.98;;
26512;SDS011;14186;53.822;10.152;2023-11-19T22:30:56;10.57;;;2.75;;
26512;SDS011;14186;53.822;10.152;2023-11-19T22:35:58;10.90;;;1.90;;
26512;SDS011;14186;53.822;10.152;2023-11-19T22:40:58;6.40;;;1.42;;
26512;SDS011;14186;53.822;10.152;2023-11-19T22:45:58;8.50;;;1.92;;
26512;SDS011;14186;53.822;10.152;2023-11-19T22:51:00;5.13;;;1.65;;
26512;SDS011;14186;53.822;10.152;2023-11-19T22:56:00;8.55;;;1.80;;
26512;SDS011;14186;53.822;10.152;2023-11-19T23:01:00;7.22;;;2.13;;
26512;SDS011;14186;53.822;10.152;2023-11-19T23:06:02;5.95;;;1.45;;
26512;SDS011;14186;53.822;10.152;2023-11-19T23:11:03;8.10;;;1.92;;
26512;SDS011;14186;53.822;10.152;2023-11-19T23:16:03;7.50;;;2.25;;
26512;SDS011;14186;53.822;10.152;2023-11-19T23:21:05;9.38;;;2.10;;
26512;SDS011;14186;53.822;10.152;2023-11-19T23:26:05;7.22;;;1.95;;
26512;SDS011;14186;53.822;10.152;2023-11-19T23:31:05;6.05;;;2.00;;
26512;SDS011;14186;53.822;10.152;2023-11-19T23:36:07;7.10;;;2.35;;
26512;SDS011;14186;53.822;10.152;2023-11-19T23:41:08;7.97;;;1.92;;
26512;SDS011;14186;53.822;10.152;2023-11-19T23:46:08;10.65;;;2.30;;
26512;SDS011;14186;53.822;10.152;2023-11-19T23:51:09;10.55;;;2.45;;
26512;SDS011;14186;53.822;10.152;2023-11-19T23:56:09;10.70;;;3.08;;
